KCIU

Chippewa County International Airport

Airport
ICAO code
KCIU
IATA Code
CIU
Summary
ICAO Region
NAM
ICAO Territory
Location

Kincheloe, Michigan

Serving
Sault Ste. Marie
Elevation
799 ft
Coordinates
46° 15' 0" N , 84° 28' 19" W
KCC
Airport CFIT
Altimeter Temperature Error Correction
Airport GND
Aircraft Ground De/Anti Icing
Airport RE
Landing on Contaminated Runways
Airport WX
Lake Effect Snow
Metar
KCIU 122256Z AUTO 23006KT 10SM CLR 27/17 A3008 RMK AO2 SLP183 T02670167

Description

Chippewa County International Airport is a public use airport located 15 nm south of the central business district of Sault Ste. Marie, in Chippewa County, Michigan, USA.

Airport map

Aerial View

SKYbrary Partners:

Safety knowledge contributed by: